Time;durP1;ratioP1;P1;durP2;ratioP2;P2;SDS_P1;SDS_P2;PMS_P1;PMS_P2;Temp;Humidity;BMP_temperature;BMP_pressure;BME280_temperature;BME280_humidity;BME280_pressure;Samples;Min_cycle;Max_cycle;Signal;HPM_P1;HPM_P2
2023/07/14 00:02:17;;;;;;;;;;;19.40;77.00;;;;;;5114065;27;19907;-74
2023/07/14 00:04:43;;;;;;;;;;;19.40;77.00;;;;;;5112237;27;19919;-74
2023/07/14 00:07:14;;;;;;;;;;;19.40;77.00;;;;;;5107263;27;19916;-73
2023/07/14 00:09:42;;;;;;;;;;;19.40;77.10;;;;;;5122706;27;19912;-73
2023/07/14 00:12:09;;;;;;;;;;;19.40;77.10;;;;;;5110751;27;19982;-73
2023/07/14 00:14:35;;;;;;;;;;;19.30;76.90;;;;;;5122148;27;20257;-73
2023/07/14 00:17:00;;;;;;;;;;;19.30;77.10;;;;;;5115638;27;19930;-74
2023/07/14 00:19:26;;;;;;;;;;;19.30;77.10;;;;;;5122528;27;19907;-73
2023/07/14 00:21:51;;;;;;;;;;;19.30;77.10;;;;;;5116306;27;19915;-73
2023/07/14 00:24:18;;;;;;;;;;;19.30;77.20;;;;;;5122101;27;19912;-73
2023/07/14 00:26:45;;;;;;;;;;;19.20;77.00;;;;;;5120079;27;20376;-74
2023/07/14 00:29:25;;;;;;;;;;;19.20;77.10;;;;;;5122452;27;19915;-74
2023/07/14 00:31:51;;;;;;;;;;;19.20;77.30;;;;;;5116385;27;19939;-74
2023/07/14 00:34:16;;;;;;;;;;;19.20;77.30;;;;;;5125368;27;19942;-73
2023/07/14 00:36:42;;;;;;;;;;;19.20;78.00;;;;;;5116483;27;19916;-73
2023/07/14 00:39:07;;;;;;;;;;;19.20;77.30;;;;;;5121545;27;19946;-73
2023/07/14 00:41:33;;;;;;;;;;;19.20;77.20;;;;;;5116318;27;20429;-74
2023/07/14 00:43:58;;;;;;;;;;;19.10;77.30;;;;;;5111695;27;19911;-74
2023/07/14 00:46:26;;;;;;;;;;;19.10;77.30;;;;;;5113363;27;19919;-73
2023/07/14 00:48:53;;;;;;;;;;;19.10;77.30;;;;;;5121668;27;19918;-73
2023/07/14 00:51:19;;;;;;;;;;;19.10;77.40;;;;;;5115889;27;19911;-74
2023/07/14 00:53:44;;;;;;;;;;;19.10;77.50;;;;;;5122132;27;19912;-73
2023/07/14 00:56:10;;;;;;;;;;;19.10;77.40;;;;;;5115041;27;19922;-74
2023/07/14 00:58:36;;;;;;;;;;;19.10;77.40;;;;;;5126374;27;19915;-73
2023/07/14 01:01:01;;;;;;;;;;;19.10;77.40;;;;;;5108377;27;20235;-73
2023/07/14 01:03:27;;;;;;;;;;;19.10;77.40;;;;;;5106186;28;20041;-73
2023/07/14 01:05:52;;;;;;;;;;;19.10;77.50;;;;;;5099515;28;19923;-73
2023/07/14 01:08:21;;;;;;;;;;;19.00;77.30;;;;;;5117675;27;19957;-73
2023/07/14 01:10:47;;;;;;;;;;;19.10;77.60;;;;;;5112276;27;19943;-73
2023/07/14 01:13:13;;;;;;;;;;;19.10;77.50;;;;;;5126434;27;19946;-73
2023/07/14 01:15:39;;;;;;;;;;;19.00;77.40;;;;;;5112787;27;19951;-73
2023/07/14 01:18:05;;;;;;;;;;;19.10;77.50;;;;;;5120044;27;19916;-74
2023/07/14 01:20:31;;;;;;;;;;;19.10;77.50;;;;;;5113868;27;19938;-73
2023/07/14 01:22:59;;;;;;;;;;;19.00;77.30;;;;;;5123462;27;19925;-73
2023/07/14 01:25:33;;;;;;;;;;;19.00;77.30;;;;;;5104983;28;20672;-73
2023/07/14 01:27:58;;;;;;;;;;;19.00;77.30;;;;;;5123308;27;19912;-73
2023/07/14 01:30:24;;;;;;;;;;;19.00;77.40;;;;;;5113852;27;19922;-73
2023/07/14 01:32:50;;;;;;;;;;;19.00;77.40;;;;;;5120229;27;19911;-73
2023/07/14 01:35:17;;;;;;;;;;;19.00;77.30;;;;;;5147470;27;20326;-73
2023/07/14 01:37:44;;;;;;;;;;;19.00;77.30;;;;;;5121566;28;19950;-73
2023/07/14 01:40:12;;;;;;;;;;;19.00;77.40;;;;;;5116755;27;19976;-74
2023/07/14 01:42:42;;;;;;;;;;;19.00;77.40;;;;;;5123284;27;20345;-73
2023/07/14 01:45:15;;;;;;;;;;;19.00;77.40;;;;;;5146700;27;20406;-73
2023/07/14 01:47:42;;;;;;;;;;;19.00;77.40;;;;;;5124495;27;19934;-73
2023/07/14 01:50:20;;;;;;;;;;;19.00;77.50;;;;;;5121376;27;19908;-73
2023/07/14 01:52:47;;;;;;;;;;;19.00;77.50;;;;;;5125883;27;19911;-73
2023/07/14 01:55:14;;;;;;;;;;;18.90;77.30;;;;;;5118883;27;19916;-73
2023/07/14 01:57:42;;;;;;;;;;;18.90;77.50;;;;;;5127355;27;19954;-73
2023/07/14 02:00:11;;;;;;;;;;;18.90;77.50;;;;;;5152409;27;19912;-73
2023/07/14 02:02:38;;;;;;;;;;;18.90;77.50;;;;;;5123470;27;19908;-73
2023/07/14 02:05:24;;;;;;;;;;;18.90;77.60;;;;;;5115517;27;19947;-73
2023/07/14 02:07:50;;;;;;;;;;;18.90;77.60;;;;;;5117609;27;19912;-74
2023/07/14 02:10:16;;;;;;;;;;;18.90;77.50;;;;;;5119538;27;20027;-73
2023/07/14 02:12:46;;;;;;;;;;;18.90;77.50;;;;;;5124403;27;19911;-73
2023/07/14 02:15:20;;;;;;;;;;;18.90;77.60;;;;;;5153419;27;20340;-73
2023/07/14 02:17:46;;;;;;;;;;;18.80;77.70;;;;;;5131563;27;19943;-73
2023/07/14 02:20:19;;;;;;;;;;;18.80;77.70;;;;;;5120305;27;19958;-73
2023/07/14 02:22:45;;;;;;;;;;;18.80;77.80;;;;;;5116162;27;19965;-73
2023/07/14 02:25:13;;;;;;;;;;;18.80;77.90;;;;;;5125279;27;19915;-73
2023/07/14 02:27:38;;;;;;;;;;;18.80;77.80;;;;;;5122744;27;19964;-73
2023/07/14 02:30:15;;;;;;;;;;;18.80;77.80;;;;;;5121333;27;19920;-73
2023/07/14 02:32:44;;;;;;;;;;;18.80;77.80;;;;;;5119864;27;19912;-73
2023/07/14 02:35:19;;;;;;;;;;;18.70;77.90;;;;;;5123505;27;20878;-73
2023/07/14 02:38:00;;;;;;;;;;;18.70;77.90;;;;;;5129412;27;19915;-73
2023/07/14 02:40:30;;;;;;;;;;;18.70;77.90;;;;;;5110600;27;20407;-73
2023/07/14 02:42:56;;;;;;;;;;;18.70;77.90;;;;;;5128774;27;20406;-73
2023/07/14 02:45:22;;;;;;;;;;;18.70;78.00;;;;;;5117897;27;19947;-74
2023/07/14 02:47:50;;;;;;;;;;;18.70;78.00;;;;;;5107519;27;19912;-73
2023/07/14 02:50:15;;;;;;;;;;;18.60;78.00;;;;;;5110937;27;19911;-73
2023/07/14 02:52:41;;;;;;;;;;;18.60;78.00;;;;;;5122220;27;20261;-73
2023/07/14 02:55:07;;;;;;;;;;;18.60;78.00;;;;;;5120230;27;20438;-73
2023/07/14 02:57:34;;;;;;;;;;;18.60;78.10;;;;;;5120901;27;20034;-73
2023/07/14 02:59:59;;;;;;;;;;;18.60;78.10;;;;;;5121312;27;20006;-73
2023/07/14 03:02:25;;;;;;;;;;;18.60;78.10;;;;;;5120556;27;20010;-73
2023/07/14 03:04:50;;;;;;;;;;;18.60;78.20;;;;;;5113916;27;19911;-73
2023/07/14 03:07:16;;;;;;;;;;;18.50;78.10;;;;;;5109400;27;19911;-73
2023/07/14 03:09:41;;;;;;;;;;;18.50;78.20;;;;;;5115188;27;19908;-73
2023/07/14 03:12:08;;;;;;;;;;;18.50;78.30;;;;;;5108892;27;19908;-73
2023/07/14 03:14:33;;;;;;;;;;;18.50;78.20;;;;;;5123693;27;19927;-73
2023/07/14 03:16:59;;;;;;;;;;;18.50;78.30;;;;;;5117171;27;19912;-73
2023/07/14 03:19:25;;;;;;;;;;;18.50;78.30;;;;;;5123193;27;19912;-74
2023/07/14 03:21:50;;;;;;;;;;;18.50;78.30;;;;;;5123673;27;20002;-73
2023/07/14 03:24:15;;;;;;;;;;;18.40;78.30;;;;;;5112379;27;19919;-73
2023/07/14 03:26:41;;;;;;;;;;;18.40;78.30;;;;;;5092399;28;19920;-73
2023/07/14 03:29:07;;;;;;;;;;;18.40;78.30;;;;;;5109375;27;19916;-74
2023/07/14 03:31:32;;;;;;;;;;;18.40;78.40;;;;;;5109819;28;19912;-73
2023/07/14 03:33:58;;;;;;;;;;;18.40;78.50;;;;;;5110713;28;20630;-73
2023/07/14 03:36:25;;;;;;;;;;;18.40;78.40;;;;;;5108925;28;20014;-74
2023/07/14 03:39:10;;;;;;;;;;;18.40;78.40;;;;;;5110035;28;20464;-74
2023/07/14 03:41:36;;;;;;;;;;;18.40;78.50;;;;;;5110542;28;19911;-73
2023/07/14 03:44:01;;;;;;;;;;;18.40;78.50;;;;;;5110560;27;19911;-73
2023/07/14 03:46:27;;;;;;;;;;;18.30;78.50;;;;;;5110328;28;19915;-73
2023/07/14 03:48:52;;;;;;;;;;;18.30;78.50;;;;;;5110537;28;20517;-74
2023/07/14 03:51:18;;;;;;;;;;;18.30;78.50;;;;;;5128612;27;19911;-74
2023/07/14 03:53:44;;;;;;;;;;;18.30;78.60;;;;;;5128990;27;19911;-73
2023/07/14 03:56:10;;;;;;;;;;;18.30;78.60;;;;;;5108916;28;20004;-73
2023/07/14 03:58:35;;;;;;;;;;;18.30;78.60;;;;;;5107771;28;20401;-73
2023/07/14 04:01:01;;;;;;;;;;;18.30;78.60;;;;;;5106725;27;19916;-73
2023/07/14 04:03:27;;;;;;;;;;;18.30;78.70;;;;;;5107025;28;19916;-74
2023/07/14 04:05:52;;;;;;;;;;;18.20;78.70;;;;;;5098653;28;20688;-73
2023/07/14 04:08:18;;;;;;;;;;;18.30;78.70;;;;;;5108674;27;19918;-73
2023/07/14 04:10:43;;;;;;;;;;;18.20;78.70;;;;;;5109643;28;19919;-74
2023/07/14 04:13:09;;;;;;;;;;;18.30;78.80;;;;;;5109376;28;20349;-73
2023/07/14 04:15:35;;;;;;;;;;;18.20;78.70;;;;;;5109612;28;19911;-73
2023/07/14 04:18:00;;;;;;;;;;;18.20;78.70;;;;;;5124602;27;20652;-74
2023/07/14 04:20:26;;;;;;;;;;;18.30;78.70;;;;;;5130124;27;20347;-74
2023/07/14 04:22:51;;;;;;;;;;;18.30;78.70;;;;;;5129464;27;19925;-74
2023/07/14 04:25:17;;;;;;;;;;;18.30;78.70;;;;;;5114437;27;20011;-73
2023/07/14 04:27:42;;;;;;;;;;;18.30;78.70;;;;;;5109371;28;19919;-74
2023/07/14 04:30:08;;;;;;;;;;;18.30;79.10;;;;;;5109422;28;20544;-73
2023/07/14 04:32:34;;;;;;;;;;;18.30;78.70;;;;;;5108253;28;19911;-74
2023/07/14 04:34:59;;;;;;;;;;;18.30;78.60;;;;;;5105576;28;19926;-74
2023/07/14 04:37:25;;;;;;;;;;;18.30;78.60;;;;;;5108723;28;19912;-74
2023/07/14 04:39:51;;;;;;;;;;;18.40;78.70;;;;;;5109290;28;19918;-73
2023/07/14 04:42:16;;;;;;;;;;;18.40;78.60;;;;;;5109424;28;19914;-73
2023/07/14 04:44:42;;;;;;;;;;;18.40;78.50;;;;;;5109667;27;20302;-74
2023/07/14 04:47:08;;;;;;;;;;;18.40;78.50;;;;;;5109060;28;19916;-74
2023/07/14 04:49:34;;;;;;;;;;;18.40;78.50;;;;;;5114493;27;19916;-73
2023/07/14 04:52:00;;;;;;;;;;;18.40;78.60;;;;;;5129444;27;19964;-74
2023/07/14 04:54:26;;;;;;;;;;;18.40;78.60;;;;;;5121599;27;19918;-73
2023/07/14 04:56:51;;;;;;;;;;;18.40;78.50;;;;;;5108103;28;19911;-73
2023/07/14 04:59:17;;;;;;;;;;;18.40;78.50;;;;;;5110468;27;19908;-74
2023/07/14 05:01:43;;;;;;;;;;;18.40;78.50;;;;;;5088517;28;19912;-73
2023/07/14 05:04:08;;;;;;;;;;;18.50;78.50;;;;;;5094113;28;19965;-73
2023/07/14 05:06:34;;;;;;;;;;;18.50;78.40;;;;;;5115457;27;20448;-74
2023/07/14 05:09:00;;;;;;;;;;;18.50;78.40;;;;;;5108982;28;19912;-74
2023/07/14 05:11:25;;;;;;;;;;;18.50;78.40;;;;;;5108707;28;19912;-74
2023/07/14 05:13:51;;;;;;;;;;;18.50;78.40;;;;;;5108326;28;20027;-72
2023/07/14 05:16:17;;;;;;;;;;;18.50;78.40;;;;;;5107560;27;19912;-73
2023/07/14 05:18:43;;;;;;;;;;;18.60;78.50;;;;;;5108642;28;20308;-73
2023/07/14 05:21:08;;;;;;;;;;;18.60;78.40;;;;;;5122764;27;19922;-73
2023/07/14 05:23:34;;;;;;;;;;;18.50;78.30;;;;;;5108012;28;19927;-73
2023/07/14 05:26:00;;;;;;;;;;;18.50;78.30;;;;;;5087988;28;20250;-73
2023/07/14 05:28:25;;;;;;;;;;;18.60;78.30;;;;;;5088714;28;19916;-73
2023/07/14 05:30:51;;;;;;;;;;;18.60;78.30;;;;;;5108980;28;19908;-73
2023/07/14 05:33:17;;;;;;;;;;;18.60;78.40;;;;;;5108312;28;19907;-73
2023/07/14 05:35:43;;;;;;;;;;;18.60;78.40;;;;;;5088009;28;19922;-73
2023/07/14 05:38:09;;;;;;;;;;;18.70;78.30;;;;;;5101685;28;19915;-74
2023/07/14 05:40:34;;;;;;;;;;;18.70;78.50;;;;;;5108818;28;20051;-73
2023/07/14 05:43:00;;;;;;;;;;;18.70;78.30;;;;;;5108883;28;19912;-73
2023/07/14 05:45:26;;;;;;;;;;;18.70;78.40;;;;;;5108426;28;19964;-73
2023/07/14 05:47:51;;;;;;;;;;;18.70;78.30;;;;;;5108899;28;20280;-74
2023/07/14 05:50:17;;;;;;;;;;;18.70;78.30;;;;;;5118245;28;19907;-73
2023/07/14 05:52:43;;;;;;;;;;;18.70;78.30;;;;;;5115277;27;20350;-73
2023/07/14 05:55:09;;;;;;;;;;;18.70;78.10;;;;;;5105551;28;19923;-73
2023/07/14 05:57:38;;;;;;;;;;;18.70;78.20;;;;;;5106123;28;19915;-73
2023/07/14 06:00:06;;;;;;;;;;;18.70;78.20;;;;;;5108657;28;19912;-73
2023/07/14 06:02:31;;;;;;;;;;;18.70;78.30;;;;;;5109031;28;20381;-73
2023/07/14 06:05:00;;;;;;;;;;;18.80;78.30;;;;;;5106670;28;19911;-74
2023/07/14 06:07:25;;;;;;;;;;;18.70;78.20;;;;;;5108074;28;19916;-73
2023/07/14 06:09:51;;;;;;;;;;;18.80;78.30;;;;;;5108224;28;19962;-73
2023/07/14 06:12:16;;;;;;;;;;;18.80;78.30;;;;;;5108748;28;20003;-73
2023/07/14 06:14:42;;;;;;;;;;;18.80;78.20;;;;;;5108712;28;19914;-73
2023/07/14 06:17:08;;;;;;;;;;;18.80;78.20;;;;;;5108536;28;19911;-73
2023/07/14 06:19:34;;;;;;;;;;;18.80;78.10;;;;;;5112123;28;19915;-74
2023/07/14 06:21:59;;;;;;;;;;;18.80;78.20;;;;;;5103576;27;20539;-73
2023/07/14 06:24:25;;;;;;;;;;;18.80;78.10;;;;;;5108641;28;19919;-73
2023/07/14 06:26:51;;;;;;;;;;;18.80;78.10;;;;;;5109375;28;19919;-74
2023/07/14 06:29:18;;;;;;;;;;;18.80;78.00;;;;;;5112472;28;19953;-73
2023/07/14 06:31:43;;;;;;;;;;;18.80;78.10;;;;;;5111238;28;19916;-74
2023/07/14 06:34:09;;;;;;;;;;;18.80;78.10;;;;;;5112457;28;20635;-74
2023/07/14 06:36:35;;;;;;;;;;;18.80;78.10;;;;;;5112116;28;19957;-73
2023/07/14 06:39:03;;;;;;;;;;;18.80;78.00;;;;;;5106133;27;19920;-73
2023/07/14 06:41:29;;;;;;;;;;;18.80;78.00;;;;;;5116868;27;19943;-74
2023/07/14 06:43:54;;;;;;;;;;;18.90;78.00;;;;;;5117268;27;19979;-73
2023/07/14 06:46:20;;;;;;;;;;;18.90;77.90;;;;;;5116935;27;19915;-73
2023/07/14 06:48:45;;;;;;;;;;;18.80;77.90;;;;;;5112779;27;19960;-73
2023/07/14 06:51:13;;;;;;;;;;;18.90;77.90;;;;;;5121641;27;19907;-74
2023/07/14 06:53:39;;;;;;;;;;;18.90;77.80;;;;;;5114453;27;19958;-73
2023/07/14 06:56:04;;;;;;;;;;;18.90;77.80;;;;;;5113312;27;19919;-74
2023/07/14 06:58:30;;;;;;;;;;;18.90;77.70;;;;;;5115942;27;19911;-73
2023/07/14 07:00:56;;;;;;;;;;;18.90;77.70;;;;;;5107728;27;19919;-74
2023/07/14 07:03:21;;;;;;;;;;;19.00;77.70;;;;;;5109389;28;19915;-73
2023/07/14 07:05:47;;;;;;;;;;;19.00;77.60;;;;;;5104921;28;19916;-73
2023/07/14 07:08:14;;;;;;;;;;;19.00;77.50;;;;;;5110666;28;20332;-73
2023/07/14 07:10:40;;;;;;;;;;;19.00;77.40;;;;;;5111731;28;19912;-73
2023/07/14 07:13:05;;;;;;;;;;;19.00;77.40;;;;;;5111372;28;20338;-73
2023/07/14 07:15:31;;;;;;;;;;;19.00;77.30;;;;;;5112460;27;19908;-74
2023/07/14 07:17:56;;;;;;;;;;;19.10;77.30;;;;;;5111669;27;19937;-73
2023/07/14 07:20:22;;;;;;;;;;;19.10;77.20;;;;;;5121676;27;19914;-73
2023/07/14 07:22:47;;;;;;;;;;;19.10;77.20;;;;;;5132196;27;20379;-73
2023/07/14 07:25:13;;;;;;;;;;;19.10;77.20;;;;;;5116738;27;19950;-73
2023/07/14 07:27:38;;;;;;;;;;;19.20;77.10;;;;;;5111119;28;19998;-73
2023/07/14 07:30:04;;;;;;;;;;;19.20;76.90;;;;;;5112091;27;20503;-74
2023/07/14 07:32:31;;;;;;;;;;;19.30;76.80;;;;;;5111153;27;19912;-73
2023/07/14 07:34:59;;;;;;;;;;;19.20;76.70;;;;;;5111168;28;19912;-73
2023/07/14 07:37:27;;;;;;;;;;;19.30;76.70;;;;;;5110795;28;19912;-73
2023/07/14 07:39:54;;;;;;;;;;;19.30;76.60;;;;;;5110642;28;19916;-73
2023/07/14 07:42:20;;;;;;;;;;;19.40;76.60;;;;;;5111040;28;19911;-73
2023/07/14 07:44:45;;;;;;;;;;;19.40;76.60;;;;;;5111172;28;19938;-73
2023/07/14 07:47:12;;;;;;;;;;;19.40;76.60;;;;;;5119595;27;20380;-74
2023/07/14 07:49:38;;;;;;;;;;;19.40;76.70;;;;;;5125767;27;19915;-73
2023/07/14 07:52:04;;;;;;;;;;;19.40;76.50;;;;;;5110822;28;19912;-74
2023/07/14 07:54:30;;;;;;;;;;;19.50;76.50;;;;;;5110083;28;19991;-73
2023/07/14 07:56:55;;;;;;;;;;;19.50;76.40;;;;;;5109540;28;20034;-74
2023/07/14 07:59:21;;;;;;;;;;;19.50;76.30;;;;;;5109927;28;19919;-74
2023/07/14 08:01:46;;;;;;;;;;;19.50;76.20;;;;;;5108937;28;19958;-74
2023/07/14 08:04:12;;;;;;;;;;;19.60;76.20;;;;;;5110168;27;19962;-73
2023/07/14 08:06:38;;;;;;;;;;;19.60;76.20;;;;;;5108714;28;19911;-73
2023/07/14 08:09:04;;;;;;;;;;;19.60;76.00;;;;;;5109734;28;19964;-74
2023/07/14 08:11:30;;;;;;;;;;;19.70;76.30;;;;;;5109571;28;20018;-74
2023/07/14 08:13:55;;;;;;;;;;;19.70;76.00;;;;;;5109492;28;19994;-74
2023/07/14 08:16:21;;;;;;;;;;;19.70;76.00;;;;;;5109250;28;19918;-75
2023/07/14 08:18:46;;;;;;;;;;;19.70;76.00;;;;;;5110535;27;20495;-74
2023/07/14 08:21:12;;;;;;;;;;;19.70;75.80;;;;;;5126655;27;19912;-73
2023/07/14 08:23:40;;;;;;;;;;;19.70;75.80;;;;;;5128581;27;19919;-74
2023/07/14 08:26:06;;;;;;;;;;;19.80;75.60;;;;;;5108554;28;19923;-74
2023/07/14 08:28:32;;;;;;;;;;;19.80;75.60;;;;;;5109205;28;19911;-74
2023/07/14 08:30:58;;;;;;;;;;;19.80;75.50;;;;;;5109110;28;19912;-74
2023/07/14 08:33:25;;;;;;;;;;;19.90;75.50;;;;;;5108993;28;20372;-74
2023/07/14 08:35:50;;;;;;;;;;;19.90;76.10;;;;;;5119863;27;19916;-74
2023/07/14 08:38:16;;;;;;;;;;;20.00;75.40;;;;;;5115400;27;19937;-74
2023/07/14 08:40:53;;;;;;;;;;;20.00;75.40;;;;;;5109086;28;19912;-74
2023/07/14 08:43:21;;;;;;;;;;;19.90;75.30;;;;;;5108415;28;19916;-74
2023/07/14 08:45:55;;;;;;;;;;;20.00;75.40;;;;;;5108391;28;20027;-74
2023/07/14 08:48:24;;;;;;;;;;;20.00;75.30;;;;;;5108756;28;20544;-74
2023/07/14 08:50:52;;;;;;;;;;;20.10;75.20;;;;;;5120291;27;19922;-74
2023/07/14 08:53:25;;;;;;;;;;;20.00;75.10;;;;;;5129418;27;19980;-74
2023/07/14 08:56:00;;;;;;;;;;;20.10;75.00;;;;;;5108952;27;19987;-73
2023/07/14 08:58:27;;;;;;;;;;;20.10;75.20;;;;;;5108826;28;19908;-74
2023/07/14 09:00:53;;;;;;;;;;;20.20;75.20;;;;;;5108685;28;19916;-74
2023/07/14 09:03:37;;;;;;;;;;;20.20;75.00;;;;;;5107962;28;19912;-73
2023/07/14 09:06:09;;;;;;;;;;;20.20;74.90;;;;;;5115899;27;19916;-73
2023/07/14 09:08:35;;;;;;;;;;;20.30;75.00;;;;;;5108070;27;19919;-74
2023/07/14 09:11:19;;;;;;;;;;;20.40;74.70;;;;;;5108670;28;20318;-74
2023/07/14 09:13:54;;;;;;;;;;;20.40;74.60;;;;;;5108848;28;19951;-73
2023/07/14 09:16:23;;;;;;;;;;;20.50;74.30;;;;;;5106684;28;19919;-73
2023/07/14 09:18:53;;;;;;;;;;;20.60;74.20;;;;;;5108765;28;19958;-74
2023/07/14 09:21:18;;;;;;;;;;;20.70;74.00;;;;;;5126311;27;19911;-74
2023/07/14 09:24:03;;;;;;;;;;;20.70;73.80;;;;;;5118231;27;19927;-74
2023/07/14 09:26:31;;;;;;;;;;;20.70;74.00;;;;;;5116757;27;19988;-74
2023/07/14 09:28:57;;;;;;;;;;;20.80;73.80;;;;;;5119958;27;19914;-74
2023/07/14 09:31:41;;;;;;;;;;;20.80;73.90;;;;;;5116480;27;19919;-74
2023/07/14 09:34:27;;;;;;;;;;;20.80;74.10;;;;;;5106461;28;19999;-74
2023/07/14 09:36:53;;;;;;;;;;;20.90;73.80;;;;;;5106686;28;19947;-74
2023/07/14 09:39:22;;;;;;;;;;;21.00;73.80;;;;;;5109266;28;19957;-75
2023/07/14 09:41:50;;;;;;;;;;;21.10;73.60;;;;;;5128506;27;19912;-75
2023/07/14 09:44:16;;;;;;;;;;;21.20;73.30;;;;;;5128490;27;19918;-75
2023/07/14 09:46:45;;;;;;;;;;;21.30;73.10;;;;;;5127989;27;19916;-74
2023/07/14 09:49:16;;;;;;;;;;;21.40;72.90;;;;;;5126790;27;20042;-74
2023/07/14 09:51:58;;;;;;;;;;;21.40;72.90;;;;;;5128140;27;19919;-74
2023/07/14 09:54:24;;;;;;;;;;;21.50;72.90;;;;;;5120455;27;20272;-75
2023/07/14 09:56:50;;;;;;;;;;;21.60;72.70;;;;;;5108287;28;19922;-74
2023/07/14 09:59:20;;;;;;;;;;;21.60;72.70;;;;;;5107631;28;19912;-74
2023/07/14 10:01:59;;;;;;;;;;;21.70;72.60;;;;;;5108169;28;19912;-74
2023/07/14 10:04:29;;;;;;;;;;;21.70;72.50;;;;;;5106655;28;20629;-74
2023/07/14 10:07:14;;;;;;;;;;;21.80;72.30;;;;;;5103605;28;19920;-74
2023/07/14 10:09:54;;;;;;;;;;;21.90;72.30;;;;;;5108910;28;19911;-74
2023/07/14 10:12:19;;;;;;;;;;;22.00;72.10;;;;;;5111106;27;20257;-74
2023/07/14 10:14:46;;;;;;;;;;;22.10;71.80;;;;;;5111898;28;19912;-74
2023/07/14 10:17:21;;;;;;;;;;;22.20;71.60;;;;;;5111371;28;20017;-74
2023/07/14 10:19:49;;;;;;;;;;;22.30;71.50;;;;;;5111859;28;19950;-74
2023/07/14 10:22:18;;;;;;;;;;;22.40;71.30;;;;;;5111341;28;19915;-73
2023/07/14 10:24:47;;;;;;;;;;;22.40;71.20;;;;;;5101137;28;19923;-74
2023/07/14 10:27:18;;;;;;;;;;;22.60;71.10;;;;;;5090974;28;20422;-75
2023/07/14 10:29:47;;;;;;;;;;;22.60;70.90;;;;;;5120739;27;19987;-74
2023/07/14 10:32:31;;;;;;;;;;;22.70;70.80;;;;;;5132183;27;20027;-74
2023/07/14 10:34:57;;;;;;;;;;;22.70;70.90;;;;;;5109152;27;19998;-75
2023/07/14 10:37:24;;;;;;;;;;;22.70;70.90;;;;;;5110966;28;19954;-75
2023/07/14 10:39:54;;;;;;;;;;;22.80;70.90;;;;;;5111431;28;19920;-75
2023/07/14 10:42:21;;;;;;;;;;;22.80;70.80;;;;;;5111081;28;19915;-74
2023/07/14 10:44:47;;;;;;;;;;;22.90;70.70;;;;;;5112522;27;19954;-74
2023/07/14 10:47:16;;;;;;;;;;;22.90;70.60;;;;;;5110765;28;19919;-74
2023/07/14 10:49:52;;;;;;;;;;;22.90;70.60;;;;;;5111310;28;19911;-74
2023/07/14 10:52:20;;;;;;;;;;;22.90;70.70;;;;;;5109666;28;19919;-75
2023/07/14 10:54:57;;;;;;;;;;;22.90;70.60;;;;;;5110738;28;19912;-75
2023/07/14 10:57:29;;;;;;;;;;;23.00;70.60;;;;;;5115552;27;19919;-74
2023/07/14 10:59:58;;;;;;;;;;;23.10;70.60;;;;;;5131589;27;19922;-74
2023/07/14 11:02:27;;;;;;;;;;;23.20;70.30;;;;;;5112205;27;20381;-74
2023/07/14 11:04:56;;;;;;;;;;;23.20;70.30;;;;;;5110441;28;19911;-75
2023/07/14 11:07:28;;;;;;;;;;;23.20;70.20;;;;;;5110254;28;19912;-75
2023/07/14 11:09:54;;;;;;;;;;;23.30;70.00;;;;;;5118245;27;19946;-75
2023/07/14 11:12:22;;;;;;;;;;;23.50;69.80;;;;;;5129823;27;20543;-75
2023/07/14 11:14:48;;;;;;;;;;;23.60;69.70;;;;;;5116503;27;20430;-76
2023/07/14 11:17:36;;;;;;;;;;;23.70;69.30;;;;;;5110068;28;19912;-74
2023/07/14 11:20:03;;;;;;;;;;;23.80;68.90;;;;;;5121655;27;19912;-74
2023/07/14 11:22:48;;;;;;;;;;;23.80;69.30;;;;;;5111250;27;19998;-75
2023/07/14 11:25:21;;;;;;;;;;;23.70;69.20;;;;;;5103525;28;19955;-74
2023/07/14 11:27:46;;;;;;;;;;;23.80;69.30;;;;;;5108628;27;19923;-75
2023/07/14 11:30:14;;;;;;;;;;;23.90;69.20;;;;;;5110243;28;19919;-75
2023/07/14 11:33:00;;;;;;;;;;;23.90;69.00;;;;;;5110368;28;20011;-75
2023/07/14 11:35:28;;;;;;;;;;;24.10;69.00;;;;;;5122969;27;20015;-75
2023/07/14 11:38:12;;;;;;;;;;;24.20;68.60;;;;;;5110311;28;20665;-75
2023/07/14 11:40:40;;;;;;;;;;;24.30;68.60;;;;;;5110356;28;19916;-74
2023/07/14 11:43:10;;;;;;;;;;;24.30;68.40;;;;;;5110291;28;20324;-75
2023/07/14 11:45:36;;;;;;;;;;;24.30;68.40;;;;;;5109590;28;19911;-75
2023/07/14 11:48:03;;;;;;;;;;;24.30;68.40;;;;;;5110395;28;20528;-75
2023/07/14 11:50:30;;;;;;;;;;;24.30;68.30;;;;;;5110129;28;20411;-75
2023/07/14 11:53:10;;;;;;;;;;;24.30;68.30;;;;;;5109915;28;19919;-75
2023/07/14 11:55:40;;;;;;;;;;;24.40;68.30;;;;;;5098128;27;19916;-75
2023/07/14 11:58:35;;;;;;;;;;;24.50;68.20;;;;;;5130167;27;19916;-75
2023/07/14 12:01:13;;;;;;;;;;;24.60;68.10;;;;;;5106317;27;19912;-76
2023/07/14 12:03:39;;;;;;;;;;;24.70;67.80;;;;;;5109267;28;19915;-74
2023/07/14 12:06:20;;;;;;;;;;;24.70;68.00;;;;;;5107381;28;20529;-75
2023/07/14 12:09:04;;;;;;;;;;;24.80;67.70;;;;;;5109928;28;19912;-75
2023/07/14 12:11:42;;;;;;;;;;;25.00;67.60;;;;;;5109765;27;19946;-75
2023/07/14 12:14:29;;;;;;;;;;;25.00;67.40;;;;;;5109899;28;19908;-75
2023/07/14 12:16:55;;;;;;;;;;;25.10;67.10;;;;;;5107124;28;19916;-75
2023/07/14 12:19:20;;;;;;;;;;;25.20;66.90;;;;;;5110561;27;19918;-75
2023/07/14 12:21:56;;;;;;;;;;;25.30;67.00;;;;;;5109989;28;19919;-74
2023/07/14 12:24:26;;;;;;;;;;;25.40;66.80;;;;;;5103112;28;19916;-75
2023/07/14 12:26:58;;;;;;;;;;;25.50;67.00;;;;;;5089709;28;20428;-75
2023/07/14 12:29:23;;;;;;;;;;;25.50;66.80;;;;;;5115446;27;19914;-75
2023/07/14 12:31:53;;;;;;;;;;;25.60;66.80;;;;;;5131020;27;20002;-75
2023/07/14 12:34:21;;;;;;;;;;;25.70;66.60;;;;;;5113797;27;19919;-74
2023/07/14 12:36:46;;;;;;;;;;;25.80;66.30;;;;;;5117626;27;20006;-75
2023/07/14 12:39:12;;;;;;;;;;;25.80;66.10;;;;;;5130949;27;19982;-75
2023/07/14 12:41:42;;;;;;;;;;;25.90;66.10;;;;;;5130707;27;19908;-75
2023/07/14 12:44:15;;;;;;;;;;;25.90;65.70;;;;;;5130384;27;19926;-75
2023/07/14 12:46:41;;;;;;;;;;;26.00;66.20;;;;;;5130576;27;19959;-75
2023/07/14 12:49:15;;;;;;;;;;;26.10;66.00;;;;;;5118479;27;20008;-75
2023/07/14 12:51:41;;;;;;;;;;;26.10;65.80;;;;;;5108927;28;20341;-75
2023/07/14 12:54:13;;;;;;;;;;;26.10;66.10;;;;;;5113415;27;19911;-75
2023/07/14 12:56:38;;;;;;;;;;;26.10;66.00;;;;;;5130305;27;19910;-75
2023/07/14 12:59:06;;;;;;;;;;;26.10;66.30;;;;;;5130400;27;19918;-75
2023/07/14 13:01:33;;;;;;;;;;;26.10;66.00;;;;;;5116685;27;19914;-75
2023/07/14 13:04:01;;;;;;;;;;;26.10;66.20;;;;;;5109241;28;20357;-75
2023/07/14 13:06:26;;;;;;;;;;;26.10;66.10;;;;;;5108890;28;19916;-75
2023/07/14 13:08:56;;;;;;;;;;;26.00;66.20;;;;;;5110012;28;19915;-75
2023/07/14 13:11:23;;;;;;;;;;;26.00;66.20;;;;;;5109860;28;19969;-75
2023/07/14 13:13:51;;;;;;;;;;;26.00;66.40;;;;;;5109653;28;19918;-75
2023/07/14 13:16:16;;;;;;;;;;;26.00;66.60;;;;;;5110677;28;19908;-75
2023/07/14 13:18:52;;;;;;;;;;;26.00;66.70;;;;;;5109382;28;20417;-75
2023/07/14 13:21:30;;;;;;;;;;;26.00;66.80;;;;;;5109468;28;19908;-75
2023/07/14 13:23:56;;;;;;;;;;;26.00;66.60;;;;;;5104418;28;19920;-75
2023/07/14 13:26:22;;;;;;;;;;;26.00;66.70;;;;;;5089126;28;20299;-75
2023/07/14 13:28:55;;;;;;;;;;;26.00;66.50;;;;;;5087909;28;19912;-75
2023/07/14 13:31:24;;;;;;;;;;;26.10;66.60;;;;;;5089291;28;20498;-75
2023/07/14 13:33:50;;;;;;;;;;;26.00;66.50;;;;;;5102802;27;20575;-75
2023/07/14 13:36:22;;;;;;;;;;;26.00;66.60;;;;;;5108722;28;19915;-75
2023/07/14 13:38:49;;;;;;;;;;;26.00;66.60;;;;;;5109315;28;19911;-75
2023/07/14 13:41:24;;;;;;;;;;;26.10;66.40;;;;;;5109049;28;19912;-75
2023/07/14 13:43:49;;;;;;;;;;;26.20;66.40;;;;;;5109485;28;19919;-75
2023/07/14 13:46:19;;;;;;;;;;;26.20;66.30;;;;;;5108987;28;20368;-75
2023/07/14 13:48:45;;;;;;;;;;;26.30;66.30;;;;;;5109680;28;19919;-75
2023/07/14 13:51:18;;;;;;;;;;;26.30;66.30;;;;;;5108612;28;19911;-75
2023/07/14 13:53:45;;;;;;;;;;;26.30;66.20;;;;;;5106538;28;20581;-75
2023/07/14 13:56:16;;;;;;;;;;;26.40;66.10;;;;;;5087255;28;19912;-75
2023/07/14 13:58:42;;;;;;;;;;;26.40;66.00;;;;;;5088068;28;20003;-75
2023/07/14 14:01:09;;;;;;;;;;;26.50;65.90;;;;;;5093554;28;20428;-75
2023/07/14 14:03:34;;;;;;;;;;;26.50;66.00;;;;;;5106638;28;20265;-75
2023/07/14 14:06:01;;;;;;;;;;;26.50;66.00;;;;;;5113488;27;19926;-75
2023/07/14 14:08:26;;;;;;;;;;;26.50;65.90;;;;;;5108997;28;19911;-75
2023/07/14 14:10:52;;;;;;;;;;;26.60;65.80;;;;;;5109173;28;19908;-75
2023/07/14 14:13:18;;;;;;;;;;;26.70;65.80;;;;;;5107966;28;20371;-75
2023/07/14 14:15:44;;;;;;;;;;;26.70;65.70;;;;;;5108700;28;19911;-76
2023/07/14 14:18:15;;;;;;;;;;;26.80;65.60;;;;;;5108769;28;19915;-75
2023/07/14 14:20:41;;;;;;;;;;;26.80;65.50;;;;;;5109290;28;19998;-75
2023/07/14 14:23:09;;;;;;;;;;;26.90;65.50;;;;;;5125998;27;20074;-75